パラオ の空港の天気 - METARとTAF

パラオ国際空港 ( PTRO / ROR ) - パラオ アイライ州
飛行場実況気象(Metar)
観測時間08/11 15:50 PWT (08/11 06:50 UTC)
風向・風速東 3m/s
視程10km以上
天気現象
全天の4割程度の雲 雲底高度 460m
全天の8割程度の雲 雲底高度 3660m
全天の8割程度の雲 雲底高度 9140m
気温30℃
湿度70%
気圧1010hPa
METARPTRO 110650Z 10006KT 15SM SCT015CB BKN120 BKN300 30/24 A2982 RMK CB W-NW
過去の天気等 Google飛行場航空写真 Wunderground天気予報

過去48時間のMETAR

飛行場予報(TAF)
発表時間: 8/11 14:24 PWT (8/11 05:24 UTC)
予報対象時間: 11日15時 PWT ~ 12日15時 PWT
風向・風速南東 3m/s
視程10km以上
天気現象周辺でしゅう雨
全天の4割程度の雲 雲底高度 490m
全天の8割程度の雲 雲底高度 3660m
PTRO 110524Z 1106/1206 13005KT P6SM VCSH SCT016 BKN120